createdAt,value
2019-01-17T06:09:41.724Z,15.10
2019-01-17T06:12:10.785Z,15.50
2019-01-17T06:14:39.797Z,15.60
2019-01-17T06:17:08.716Z,15.60
2019-01-17T06:19:37.532Z,15.70
2019-01-17T06:22:06.830Z,15.70
2019-01-17T06:24:35.985Z,15.70
2019-01-17T06:27:04.795Z,15.70
2019-01-17T06:29:33.656Z,15.80
2019-01-17T06:32:02.798Z,15.80
2019-01-17T06:34:31.514Z,15.80
2019-01-17T06:37:00.544Z,15.80
2019-01-17T06:39:29.405Z,15.80
2019-01-17T06:41:59.240Z,15.90
2019-01-17T06:44:28.303Z,15.90
2019-01-17T06:46:57.465Z,15.90
2019-01-17T06:49:26.292Z,15.90
2019-01-17T06:51:55.442Z,15.90
2019-01-17T06:54:24.156Z,15.90
2019-01-17T06:56:53.243Z,15.90
2019-01-17T06:59:22.223Z,15.90
2019-01-17T07:01:51.068Z,15.90
2019-01-17T07:04:20.377Z,16.00
2019-01-17T07:06:49.658Z,16.00
2019-01-17T07:09:18.395Z,16.00
2019-01-17T07:11:47.838Z,16.00
2019-01-17T07:14:16.979Z,16.10
2019-01-17T07:16:45.825Z,16.10
2019-01-17T07:19:15.532Z,16.10
2019-01-17T07:21:44.679Z,16.20
2019-01-17T07:24:13.870Z,16.20
2019-01-17T07:26:42.701Z,16.20
2019-01-17T07:29:11.537Z,16.20
2019-01-17T07:31:40.301Z,16.20
2019-01-17T07:34:09.002Z,16.30
2019-01-17T07:36:38.489Z,16.30
2019-01-17T07:39:08.076Z,16.30
2019-01-17T07:41:39.924Z,16.30
2019-01-17T07:44:08.688Z,16.30
2019-01-17T07:46:38.476Z,16.40
2019-01-17T07:49:07.181Z,16.40
2019-01-17T07:51:36.048Z,16.40
2019-01-17T07:54:05.635Z,16.50
2019-01-17T07:56:34.732Z,16.50
2019-01-17T07:59:04.244Z,16.60
2019-01-17T08:01:33.243Z,16.60
2019-01-17T08:04:02.767Z,16.60
2019-01-17T08:09:01.818Z,16.70
2019-01-17T08:11:30.356Z,16.70
2019-01-17T08:13:59.240Z,16.70
2019-01-17T08:16:28.393Z,16.70
2019-01-17T08:18:57.222Z,16.80
2019-01-17T08:21:26.084Z,16.80
2019-01-17T08:23:54.773Z,16.80
2019-01-17T08:26:24.548Z,16.80
2019-01-17T08:28:53.879Z,16.80
2019-01-17T08:31:22.664Z,16.90
2019-01-17T08:33:51.483Z,16.90
2019-01-17T08:36:21.424Z,16.90
2019-01-17T08:38:50.136Z,16.90
2019-01-17T08:41:19.687Z,17.00
2019-01-17T08:43:48.528Z,17.00
2019-01-17T08:46:17.346Z,17.00
2019-01-17T08:48:47.056Z,17.00
2019-01-17T08:51:16.225Z,17.00
2019-01-17T08:53:44.952Z,17.00
2019-01-17T08:56:13.935Z,17.10
2019-01-17T08:58:42.726Z,17.10
2019-01-17T09:01:11.428Z,17.10
2019-01-17T09:03:40.657Z,17.10
2019-01-17T09:06:10.272Z,17.10
2019-01-17T09:08:39.094Z,17.20
2019-01-17T09:11:07.832Z,17.20
2019-01-17T09:13:36.620Z,17.20
2019-01-17T09:16:05.256Z,17.20
2019-01-17T09:18:35.052Z,17.20
2019-01-17T09:21:03.793Z,17.20
2019-01-17T09:23:33.015Z,17.20
2019-01-17T09:26:07.317Z,17.20
2019-01-17T09:28:30.883Z,17.20
2019-01-17T09:31:00.118Z,17.20
2019-01-17T09:33:30.248Z,17.20
2019-01-17T09:35:59.831Z,17.20
2019-01-17T09:38:28.543Z,17.30
2019-01-17T09:40:57.867Z,17.30
2019-01-17T09:43:26.710Z,17.30
2019-01-17T09:45:55.699Z,17.30
2019-01-17T09:48:24.873Z,17.30
2019-01-17T09:50:54.514Z,17.30
2019-01-17T09:53:23.225Z,17.30
2019-01-17T09:55:51.983Z,17.30
2019-01-17T09:58:21.177Z,17.30
2019-01-17T10:00:50.698Z,17.30
2019-01-17T10:03:20.921Z,17.40
2019-01-17T10:05:50.502Z,17.40
2019-01-17T10:08:19.613Z,17.40
2019-01-17T10:10:49.210Z,17.40
2019-01-17T10:13:18.357Z,17.40
2019-01-17T10:15:53.534Z,17.40
2019-01-17T10:19:30.899Z,17.40
2019-01-17T10:22:18.442Z,17.40
2019-01-17T10:26:02.793Z,17.40
2019-01-17T10:28:49.777Z,17.40
2019-01-17T10:31:35.559Z,17.40
2019-01-17T10:34:52.482Z,17.40
2019-01-17T10:39:38.319Z,17.40
2019-01-17T10:42:21.927Z,17.40
2019-01-17T10:47:16.152Z,17.30
2019-01-17T10:49:56.794Z,17.30
2019-01-17T10:52:50.520Z,17.30
2019-01-17T10:55:31.849Z,17.30
2019-01-17T10:58:18.276Z,17.30
2019-01-17T11:01:01.630Z,17.30
2019-01-17T11:05:49.685Z,17.30
2019-01-17T11:08:35.013Z,17.40
2019-01-17T11:13:21.971Z,17.40
2019-01-17T11:16:02.267Z,17.40
2019-01-17T11:18:45.303Z,17.40
2019-01-17T11:22:26.903Z,17.40
2019-01-17T11:26:05.931Z,17.40
2019-01-17T11:28:48.865Z,17.40
2019-01-17T11:31:41.392Z,17.50
2019-01-17T11:34:53.118Z,17.50
2019-01-17T11:38:41.280Z,17.50
2019-01-17T11:41:25.569Z,17.60
2019-01-17T11:44:09.068Z,17.60
2019-01-17T11:46:54.271Z,17.60
2019-01-17T11:50:07.959Z,17.60
2019-01-17T11:53:19.043Z,17.70
2019-01-17T11:55:58.956Z,17.70
2019-01-17T12:00:42.159Z,17.60
2019-01-17T12:03:22.504Z,17.70
2019-01-17T12:05:51.596Z,17.70
2019-01-17T12:08:20.316Z,17.70
2019-01-17T12:10:49.443Z,17.70
2019-01-17T12:13:18.160Z,17.70
2019-01-17T12:15:47.311Z,17.70
2019-01-17T12:18:16.949Z,17.70
2019-01-17T12:20:46.072Z,17.70
2019-01-17T12:23:14.985Z,17.70
2019-01-17T12:25:43.673Z,17.70
2019-01-17T12:28:12.370Z,17.80
2019-01-17T12:30:42.941Z,17.80
2019-01-17T12:33:12.044Z,17.80
2019-01-17T12:35:40.797Z,17.80
2019-01-17T12:38:10.741Z,17.80
2019-01-17T12:40:39.889Z,17.80
2019-01-17T12:43:10.554Z,17.80
2019-01-17T12:45:39.470Z,17.90
2019-01-17T12:48:10.358Z,18.00
2019-01-17T12:50:39.921Z,18.10
2019-01-17T12:53:08.655Z,18.20
2019-01-17T12:55:37.505Z,18.30
2019-01-17T12:58:06.274Z,18.40
2019-01-17T13:00:37.060Z,18.50
2019-01-17T13:03:06.208Z,18.60
2019-01-17T13:05:35.402Z,18.70
2019-01-17T13:08:05.161Z,18.80
2019-01-17T13:10:34.018Z,19.00
2019-01-17T13:13:05.156Z,19.00
2019-01-17T13:15:34.054Z,19.20
2019-01-17T13:18:02.763Z,19.30
2019-01-17T13:20:32.595Z,19.40
2019-01-17T13:25:30.840Z,19.50
2019-01-17T13:28:00.052Z,19.60
2019-01-17T13:30:30.792Z,19.70
2019-01-17T13:33:00.328Z,19.80
2019-01-17T13:35:29.181Z,19.80
2019-01-17T13:37:58.317Z,19.90
2019-01-17T13:40:27.448Z,20.00
2019-01-17T13:42:57.754Z,20.00
2019-01-17T13:45:27.592Z,20.10
2019-01-17T13:47:56.394Z,20.10
2019-01-17T13:50:25.519Z,20.10
2019-01-17T13:52:54.728Z,20.20
2019-01-17T13:55:25.776Z,20.20
2019-01-17T13:57:54.946Z,20.20
2019-01-17T14:00:24.093Z,20.20
2019-01-17T14:02:52.842Z,20.20
2019-01-17T14:05:21.699Z,20.20
2019-01-17T14:07:50.587Z,20.20
2019-01-17T14:10:19.983Z,20.20
2019-01-17T14:12:48.859Z,20.20
2019-01-17T14:15:20.108Z,20.20
2019-01-17T14:17:49.188Z,20.30
2019-01-17T14:20:18.043Z,20.30
2019-01-17T14:22:46.862Z,20.30
2019-01-17T14:25:16.612Z,20.30
2019-01-17T14:27:47.011Z,20.30
2019-01-17T14:30:22.979Z,20.20
2019-01-17T14:32:51.886Z,20.20
2019-01-17T14:35:21.021Z,20.20
2019-01-17T14:37:49.865Z,20.20
2019-01-17T14:40:18.707Z,20.20
2019-01-17T14:42:48.654Z,20.10
2019-01-17T14:45:18.435Z,20.10
2019-01-17T14:47:47.804Z,20.10
2019-01-17T14:50:19.235Z,20.10
2019-01-17T14:52:48.095Z,20.00
2019-01-17T14:55:17.273Z,20.00
2019-01-17T14:57:46.563Z,20.00
2019-01-17T15:00:17.878Z,19.90
2019-01-17T15:02:46.934Z,19.90
2019-01-17T15:05:15.791Z,19.90
2019-01-17T15:07:44.633Z,19.80
2019-01-17T15:10:16.196Z,19.80
2019-01-17T15:12:44.981Z,19.70
2019-01-17T15:15:14.141Z,19.70
2019-01-17T15:17:42.982Z,19.60
2019-01-17T15:20:14.566Z,19.60
2019-01-17T15:22:44.502Z,19.50
2019-01-17T15:25:13.931Z,19.50
2019-01-17T15:27:42.771Z,19.40
2019-01-17T15:30:18.312Z,19.40
2019-01-17T15:32:47.389Z,19.30
2019-01-17T15:35:17.064Z,19.20
2019-01-17T15:37:45.952Z,19.20
2019-01-17T15:40:21.845Z,19.20
2019-01-17T15:42:50.673Z,19.10
2019-01-17T15:45:19.791Z,19.10
2019-01-17T15:47:48.650Z,19.00
2019-01-17T15:50:17.857Z,19.00
2019-01-17T15:52:47.029Z,19.00
2019-01-17T15:55:16.169Z,19.00
2019-01-17T15:57:45.072Z,18.90
2019-01-17T16:00:20.668Z,18.90
2019-01-17T16:02:49.577Z,18.90
2019-01-17T16:05:18.416Z,18.90
2019-01-17T16:07:50.415Z,18.90
2019-01-17T16:10:20.056Z,18.90
2019-01-17T16:12:48.938Z,18.80
2019-01-17T16:15:20.255Z,18.90
2019-01-17T16:17:49.066Z,18.90
2019-01-17T16:20:18.975Z,18.80
2019-01-17T16:22:48.083Z,18.80
2019-01-17T16:25:16.871Z,18.80
2019-01-17T16:27:52.751Z,18.80
2019-01-17T16:30:18.537Z,18.80
2019-01-17T16:32:47.523Z,18.80
2019-01-17T16:35:16.472Z,18.80
2019-01-17T16:37:45.698Z,18.80
2019-01-17T16:40:15.534Z,18.80
2019-01-17T16:42:44.810Z,18.80
2019-01-17T16:45:15.745Z,18.80
2019-01-17T16:47:44.618Z,18.80
2019-01-17T16:50:17.608Z,18.80
2019-01-17T16:52:48.256Z,18.70
2019-01-17T16:55:17.679Z,18.80
2019-01-17T16:57:49.173Z,18.80
2019-01-17T17:00:33.412Z,18.80
2019-01-17T17:03:02.144Z,18.80
2019-01-17T17:05:30.978Z,18.80
2019-01-17T17:08:00.055Z,18.80
2019-01-17T17:10:29.291Z,18.80
2019-01-17T17:12:59.094Z,18.80
2019-01-17T17:15:28.304Z,18.80
2019-01-17T17:17:58.389Z,18.80
2019-01-17T17:20:27.479Z,18.80
2019-01-17T17:22:56.928Z,18.80
2019-01-17T17:25:27.215Z,18.80
2019-01-17T17:27:56.914Z,18.70
2019-01-17T17:30:27.838Z,18.70
2019-01-17T17:32:57.180Z,18.70
2019-01-17T17:35:26.351Z,18.70
2019-01-17T17:37:55.668Z,18.70
2019-01-17T17:40:30.207Z,18.70
2019-01-17T17:42:59.185Z,18.70
2019-01-17T17:45:30.181Z,18.70
2019-01-17T17:48:00.755Z,18.70
2019-01-17T17:50:29.967Z,18.70
2019-01-17T17:53:00.827Z,18.70
2019-01-17T17:55:29.647Z,18.70
2019-01-17T17:58:02.110Z,18.70
2019-01-17T18:00:33.698Z,18.70
2019-01-17T18:03:02.816Z,18.70
2019-01-17T18:05:31.713Z,18.70
2019-01-17T18:08:00.587Z,18.70
2019-01-17T18:10:30.002Z,18.70
2019-01-17T18:12:58.991Z,18.70
2019-01-17T18:15:27.986Z,18.70
2019-01-17T18:17:56.796Z,18.70
2019-01-17T18:20:25.923Z,18.70
2019-01-17T18:22:55.556Z,18.70
2019-01-17T18:25:24.323Z,18.70
2019-01-17T18:27:53.748Z,18.70
2019-01-17T18:30:23.527Z,18.70
2019-01-17T18:32:54.015Z,18.70
2019-01-17T18:35:23.626Z,18.70
2019-01-17T18:37:52.449Z,18.70
2019-01-17T18:40:22.117Z,18.70
2019-01-17T18:42:51.196Z,18.70
2019-01-17T18:45:21.859Z,18.70
2019-01-17T18:47:50.624Z,18.70
2019-01-17T18:50:23.565Z,18.70
2019-01-17T18:52:52.575Z,18.70
2019-01-17T18:55:22.347Z,18.70
2019-01-17T18:57:51.480Z,18.70
2019-01-17T19:00:25.540Z,18.70
2019-01-17T19:02:54.459Z,18.70
2019-01-17T19:05:23.810Z,18.70
2019-01-17T19:07:52.652Z,18.70
2019-01-17T19:10:21.518Z,18.70
2019-01-17T19:12:51.155Z,18.60
2019-01-17T19:15:22.322Z,18.60
2019-01-17T19:17:51.494Z,18.60
2019-01-17T19:20:21.340Z,18.60
2019-01-17T19:22:50.710Z,18.60
2019-01-17T19:25:19.714Z,18.60
2019-01-17T19:27:49.479Z,18.50
2019-01-17T19:30:21.168Z,18.50
2019-01-17T19:32:50.088Z,18.50
2019-01-17T19:35:18.860Z,18.50
2019-01-17T19:37:48.281Z,18.40
2019-01-17T19:40:19.504Z,18.40
2019-01-17T19:42:48.823Z,18.40
2019-01-17T19:45:18.632Z,18.40
2019-01-17T19:47:47.475Z,18.40
2019-01-17T19:50:20.446Z,18.40
2019-01-17T19:52:49.343Z,18.40
2019-01-17T19:55:19.209Z,18.40
2019-01-17T19:57:48.065Z,18.40
2019-01-17T20:00:17.283Z,18.30
2019-01-17T20:02:46.148Z,18.30
2019-01-17T20:05:17.016Z,18.30
2019-01-17T20:07:45.796Z,18.30
2019-01-17T20:10:18.278Z,18.30
2019-01-17T20:12:47.222Z,18.30
2019-01-17T20:15:16.262Z,18.30
2019-01-17T20:17:45.111Z,18.40
2019-01-17T20:20:14.544Z,18.40
2019-01-17T20:22:46.656Z,18.40
2019-01-17T20:25:15.391Z,18.40
2019-01-17T20:27:44.191Z,18.40
2019-01-17T20:30:16.365Z,18.40
2019-01-17T20:32:45.687Z,18.40
2019-01-17T20:35:14.559Z,18.40
2019-01-17T20:37:43.364Z,18.40
2019-01-17T20:40:14.402Z,18.40
2019-01-17T20:42:44.099Z,18.40
2019-01-17T20:45:12.975Z,18.40
2019-01-17T20:47:43.386Z,18.40
2019-01-17T20:50:15.028Z,18.40
2019-01-17T20:55:12.607Z,18.50
2019-01-17T20:57:43.148Z,18.50
2019-01-17T21:00:15.855Z,18.50
2019-01-17T21:02:44.953Z,18.50
2019-01-17T21:05:14.712Z,18.50
2019-01-17T21:07:43.966Z,18.60
2019-01-17T21:10:15.178Z,18.60
2019-01-17T21:12:44.065Z,18.60
2019-01-17T21:15:13.313Z,18.60
2019-01-17T21:17:42.058Z,18.60
2019-01-17T21:20:12.443Z,18.60
2019-01-17T21:22:41.296Z,18.60
2019-01-17T21:25:12.831Z,18.60
2019-01-17T21:27:42.524Z,18.60
2019-01-17T21:30:14.812Z,18.60
2019-01-17T21:32:44.364Z,18.60
2019-01-17T21:35:14.583Z,18.60
2019-01-17T21:37:44.363Z,18.60
2019-01-17T21:40:15.778Z,18.60
2019-01-17T21:42:44.527Z,18.60
2019-01-17T21:45:15.347Z,18.70
2019-01-17T21:47:44.135Z,18.70
2019-01-17T21:50:15.734Z,18.70
2019-01-17T21:52:44.599Z,18.70
2019-01-17T21:55:13.470Z,18.70
